Time;durP1;ratioP1;P1;durP2;ratioP2;P2;SDS_P1;SDS_P2;PMS_P1;PMS_P2;Temp;Humidity;BMP_temperature;BMP_pressure;BME280_temperature;BME280_humidity;BME280_pressure;Samples;Min_cycle;Max_cycle;Signal;HPM_P1;HPM_P2
2023/06/03 00:00:05;;;;;;;9.15;7.07;;;19.70;72.60;;;;;;4997453;28;20030;-69
2023/06/03 00:02:31;;;;;;;8.88;6.60;;;19.70;72.20;;;;;;4997735;28;20026;-67
2023/06/03 00:05:00;;;;;;;8.63;6.15;;;19.70;72.20;;;;;;4997716;28;20056;-69
2023/06/03 00:07:27;;;;;;;12.70;7.13;;;19.70;72.20;;;;;;4997621;28;20027;-67
2023/06/03 00:09:53;;;;;;;10.60;6.63;;;19.70;72.00;;;;;;4997655;28;20464;-67
2023/06/03 00:12:20;;;;;;;8.57;6.03;;;19.70;72.00;;;;;;4997476;28;20065;-67
2023/06/03 00:14:46;;;;;;;9.73;5.50;;;19.70;71.90;;;;;;4997187;28;20041;-67
2023/06/03 00:17:12;;;;;;;9.48;5.45;;;19.70;72.00;;;;;;4997434;28;20511;-67
2023/06/03 00:19:41;;;;;;;11.60;5.47;;;19.60;71.80;;;;;;4997471;28;20041;-67
2023/06/03 00:22:08;;;;;;;8.30;5.38;;;19.60;71.70;;;;;;4997334;28;20494;-67
2023/06/03 00:24:34;;;;;;;6.80;5.00;;;19.60;71.90;;;;;;4997363;28;20093;-67
2023/06/03 00:27:00;;;;;;;8.38;4.60;;;19.60;71.90;;;;;;4997286;28;20424;-67
2023/06/03 00:29:26;;;;;;;7.93;4.35;;;19.60;71.70;;;;;;4997068;28;20034;-69
2023/06/03 00:31:52;;;;;;;7.70;4.60;;;19.60;71.70;;;;;;4997244;28;20022;-69
2023/06/03 00:34:18;;;;;;;7.38;4.85;;;19.50;71.70;;;;;;4997027;28;20109;-67
2023/06/03 00:36:45;;;;;;;7.03;4.60;;;19.50;71.70;;;;;;4997145;28;20073;-67
2023/06/03 00:39:11;;;;;;;6.53;4.18;;;19.50;71.60;;;;;;4995956;28;20364;-66
2023/06/03 00:41:37;;;;;;;5.82;4.38;;;19.50;71.60;;;;;;4997024;28;20050;-67
2023/06/03 00:44:03;;;;;;;5.40;4.20;;;19.50;71.50;;;;;;4996377;28;20061;-67
2023/06/03 00:46:32;;;;;;;6.88;4.20;;;19.50;71.60;;;;;;4996910;28;20049;-67
2023/06/03 00:48:58;;;;;;;5.88;4.10;;;19.50;71.60;;;;;;4995997;28;20037;-67
2023/06/03 00:51:24;;;;;;;6.53;3.90;;;19.50;71.60;;;;;;4997132;28;20023;-66
2023/06/03 00:53:50;;;;;;;6.43;3.80;;;19.50;71.50;;;;;;4996748;28;20057;-67
2023/06/03 00:56:18;;;;;;;5.95;3.63;;;19.50;71.40;;;;;;4995480;28;20061;-67
2023/06/03 00:58:44;;;;;;;4.35;3.47;;;19.50;71.30;;;;;;4995679;28;20026;-67
2023/06/03 01:01:11;;;;;;;5.68;3.50;;;19.50;71.20;;;;;;4996859;28;20032;-66
2023/06/03 01:03:41;;;;;;;5.53;3.65;;;19.50;71.20;;;;;;4996260;28;20463;-67
2023/06/03 01:06:21;;;;;;;3.85;3.10;;;19.50;71.00;;;;;;4996745;28;20098;-67
2023/06/03 01:08:47;;;;;;;5.72;3.83;;;19.50;71.10;;;;;;4996500;28;20030;-67
2023/06/03 01:11:35;;;;;;;5.40;3.50;;;19.40;71.00;;;;;;4996182;28;20026;-63
2023/06/03 01:14:25;;;;;;;5.28;3.72;;;19.50;70.90;;;;;;4996366;28;20464;-63
2023/06/03 01:16:52;;;;;;;5.68;3.83;;;19.40;71.00;;;;;;4996237;28;20042;-63
2023/06/03 01:19:38;;;;;;;5.43;3.50;;;19.40;71.30;;;;;;4996142;28;20030;-64
2023/06/03 01:22:11;;;;;;;5.55;3.50;;;19.40;71.10;;;;;;4996146;28;20030;-64
2023/06/03 01:24:40;;;;;;;5.55;3.50;;;19.40;71.40;;;;;;4996324;28;20105;-64
2023/06/03 01:27:09;;;;;;;6.55;3.65;;;19.30;71.60;;;;;;4995871;28;20018;-64
2023/06/03 01:29:37;;;;;;;5.05;3.42;;;19.30;71.60;;;;;;4996094;28;20042;-64
2023/06/03 01:32:03;;;;;;;5.65;3.80;;;19.30;71.60;;;;;;4996031;28;20030;-63
2023/06/03 01:34:30;;;;;;;4.97;3.38;;;19.20;71.80;;;;;;4996136;28;20034;-63
2023/06/03 01:36:57;;;;;;;7.75;3.70;;;19.20;71.60;;;;;;4996288;28;20061;-62
2023/06/03 01:39:23;;;;;;;6.78;3.90;;;19.20;71.80;;;;;;4995895;28;20045;-65
2023/06/03 01:41:51;;;;;;;6.90;4.03;;;19.20;72.00;;;;;;4995819;28;20479;-63
2023/06/03 01:44:17;;;;;;;5.85;4.00;;;19.20;72.30;;;;;;4994704;28;20026;-63
2023/06/03 01:46:43;;;;;;;5.82;3.95;;;19.20;72.40;;;;;;4995782;28;20356;-63
2023/06/03 01:49:09;;;;;;;5.72;3.72;;;19.20;72.20;;;;;;4995824;28;20033;-64
2023/06/03 01:51:35;;;;;;;8.07;4.28;;;19.10;72.00;;;;;;4995731;28;20147;-65
2023/06/03 01:54:02;;;;;;;7.13;4.88;;;19.10;72.00;;;;;;4995727;28;20030;-65
2023/06/03 01:56:28;;;;;;;5.25;3.72;;;19.10;72.30;;;;;;4994705;28;20104;-63
2023/06/03 01:58:54;;;;;;;14.10;4.30;;;19.10;72.30;;;;;;4995602;28;20062;-63
2023/06/03 02:01:22;;;;;;;9.32;4.95;;;19.10;72.40;;;;;;4995574;28;20019;-63
2023/06/03 02:03:48;;;;;;;10.73;6.10;;;19.10;72.60;;;;;;4995226;28;20125;-65
2023/06/03 02:06:14;;;;;;;8.30;5.45;;;19.10;73.60;;;;;;4995530;28;20109;-65
2023/06/03 02:08:40;;;;;;;8.23;5.30;;;19.10;73.00;;;;;;4995534;28;20034;-64
2023/06/03 02:11:06;;;;;;;12.90;6.72;;;19.10;73.40;;;;;;4995484;28;20101;-63
2023/06/03 02:13:32;;;;;;;9.43;5.72;;;19.10;74.30;;;;;;4995535;28;20422;-63
2023/06/03 02:15:58;;;;;;;11.73;6.15;;;19.10;73.30;;;;;;4995426;28;20101;-63
2023/06/03 02:18:24;;;;;;;10.65;6.03;;;19.10;73.30;;;;;;4995312;28;20466;-63
2023/06/03 02:20:50;;;;;;;8.93;6.03;;;19.10;73.10;;;;;;4995430;28;20022;-63
2023/06/03 02:23:16;;;;;;;9.65;6.13;;;19.10;73.00;;;;;;4994953;28;20023;-63
2023/06/03 02:25:42;;;;;;;9.98;6.38;;;19.10;72.60;;;;;;4995371;28;20018;-64
2023/06/03 02:28:08;;;;;;;8.88;5.65;;;19.10;72.50;;;;;;4995245;28;20026;-64
2023/06/03 02:30:34;;;;;;;9.35;5.05;;;19.10;72.60;;;;;;4995342;28;20027;-63
2023/06/03 02:33:00;;;;;;;10.52;5.72;;;19.10;72.60;;;;;;4995188;28;20027;-63
2023/06/03 02:35:29;;;;;;;9.55;5.95;;;19.10;72.50;;;;;;4995166;28;20344;-63
2023/06/03 02:37:55;;;;;;;10.10;6.00;;;19.10;72.60;;;;;;4994883;28;20363;-63
2023/06/03 02:40:21;;;;;;;8.20;5.35;;;19.10;72.80;;;;;;4995115;28;20364;-63
2023/06/03 02:42:47;;;;;;;8.70;5.70;;;19.10;72.90;;;;;;4995220;28;20027;-63
2023/06/03 02:45:13;;;;;;;7.32;5.15;;;19.10;72.80;;;;;;4995286;28;20023;-63
2023/06/03 02:47:39;;;;;;;7.70;5.28;;;19.10;72.80;;;;;;4995138;28;20027;-63
2023/06/03 02:50:06;;;;;;;7.43;5.18;;;19.10;72.90;;;;;;4995448;28;20113;-63
2023/06/03 02:52:33;;;;;;;7.88;5.30;;;19.10;73.00;;;;;;4994780;28;20355;-63
2023/06/03 02:55:00;;;;;;;9.68;4.53;;;19.10;73.10;;;;;;4995270;28;20034;-63
2023/06/03 02:57:26;;;;;;;7.35;5.10;;;19.10;73.10;;;;;;4994999;28;20058;-63
2023/06/03 02:59:52;;;;;;;6.13;4.63;;;19.10;73.30;;;;;;4994969;28;20037;-63
2023/06/03 03:02:21;;;;;;;9.73;5.32;;;19.10;73.40;;;;;;4994927;28;20030;-63
2023/06/03 03:04:47;;;;;;;9.82;5.07;;;19.10;73.30;;;;;;4994912;28;20048;-65
2023/06/03 03:07:13;;;;;;;7.93;5.47;;;19.20;73.40;;;;;;4994863;28;20023;-63
2023/06/03 03:09:39;;;;;;;8.15;5.03;;;19.20;73.20;;;;;;4998977;28;20084;-64
2023/06/03 03:12:05;;;;;;;9.50;5.63;;;19.20;73.40;;;;;;4998614;28;20035;-63
2023/06/03 03:14:31;;;;;;;9.13;5.72;;;19.20;73.50;;;;;;4998561;28;20038;-63
2023/06/03 03:16:57;;;;;;;8.27;5.38;;;19.20;73.70;;;;;;4998667;28;20121;-63
2023/06/03 03:19:24;;;;;;;9.00;5.80;;;19.20;73.60;;;;;;4998762;28;20061;-63
2023/06/03 03:21:50;;;;;;;8.65;5.30;;;19.20;73.60;;;;;;4998163;28;20085;-63
2023/06/03 03:24:16;;;;;;;9.00;5.78;;;19.20;73.40;;;;;;4998342;28;20026;-63
2023/06/03 03:26:42;;;;;;;10.50;5.75;;;19.20;73.50;;;;;;4997348;28;20037;-63
2023/06/03 03:29:08;;;;;;;9.73;5.70;;;19.20;73.40;;;;;;4997485;28;20026;-64
2023/06/03 03:31:34;;;;;;;8.00;5.75;;;19.20;73.50;;;;;;4998348;28;20054;-64
2023/06/03 03:34:02;;;;;;;11.57;6.15;;;19.20;73.40;;;;;;4998230;28;20408;-64
2023/06/03 03:36:30;;;;;;;9.88;6.43;;;19.10;73.50;;;;;;4997906;28;20049;-65
2023/06/03 03:39:06;;;;;;;8.13;5.70;;;19.10;73.40;;;;;;4998130;28;20117;-64
2023/06/03 03:41:32;;;;;;;13.77;7.03;;;19.10;73.30;;;;;;4998089;28;20045;-64
2023/06/03 03:43:59;;;;;;;10.38;6.90;;;19.20;73.20;;;;;;4998298;28;20018;-64
2023/06/03 03:46:25;;;;;;;9.60;6.22;;;19.10;73.10;;;;;;4998316;28;20031;-64
2023/06/03 03:48:51;;;;;;;9.55;6.13;;;19.10;73.10;;;;;;4998093;28;20027;-64
2023/06/03 03:51:16;;;;;;;10.15;6.40;;;19.10;73.00;;;;;;4997644;28;20026;-64
2023/06/03 03:53:47;;;;;;;8.13;5.65;;;19.10;72.90;;;;;;4997937;28;20415;-64
2023/06/03 03:56:18;;;;;;;11.07;6.50;;;19.10;72.90;;;;;;4998203;28;20040;-64
2023/06/03 03:58:46;;;;;;;7.68;5.60;;;19.10;72.80;;;;;;4998152;28;20018;-65
2023/06/03 04:01:17;;;;;;;9.48;5.30;;;19.10;72.80;;;;;;4999900;28;20093;-64
2023/06/03 04:03:45;;;;;;;7.95;5.65;;;19.00;72.90;;;;;;5000024;28;20050;-64
2023/06/03 04:06:13;;;;;;;7.30;4.80;;;19.00;73.00;;;;;;4999760;28;20053;-64
2023/06/03 04:08:48;;;;;;;7.50;5.30;;;18.90;72.90;;;;;;5000904;28;20105;-64
2023/06/03 04:11:28;;;;;;;6.85;4.90;;;18.90;72.70;;;;;;4999338;28;20362;-64
2023/06/03 04:13:58;;;;;;;7.70;4.50;;;18.90;72.80;;;;;;4997669;28;20026;-64
2023/06/03 04:16:42;;;;;;;6.50;4.50;;;18.90;72.70;;;;;;4997833;28;20042;-64
2023/06/03 04:19:33;;;;;;;7.63;4.78;;;18.90;72.70;;;;;;4996652;28;20451;-64
2023/06/03 04:21:59;;;;;;;6.93;4.45;;;18.90;72.60;;;;;;4997439;28;20031;-64
2023/06/03 04:24:26;;;;;;;7.20;4.55;;;18.90;72.50;;;;;;4997579;28;20022;-65
2023/06/03 04:26:52;;;;;;;8.38;4.80;;;18.90;72.50;;;;;;4997348;28;20034;-64
2023/06/03 04:29:19;;;;;;;9.65;4.90;;;18.90;72.30;;;;;;4997391;28;20022;-64
2023/06/03 04:31:45;;;;;;;7.90;4.78;;;18.90;72.40;;;;;;4997259;28;20042;-64
2023/06/03 04:34:11;;;;;;;6.82;4.63;;;18.90;72.50;;;;;;4996896;28;20093;-64
2023/06/03 04:36:37;;;;;;;7.80;4.45;;;19.00;72.40;;;;;;4997412;28;20037;-64
2023/06/03 04:39:08;;;;;;;6.68;4.35;;;19.00;72.30;;;;;;4997061;28;20033;-64
2023/06/03 04:41:37;;;;;;;5.80;4.22;;;19.10;72.30;;;;;;4997060;28;20351;-64
2023/06/03 04:44:04;;;;;;;8.13;4.70;;;19.20;72.00;;;;;;4996935;28;20018;-64
2023/06/03 04:46:31;;;;;;;7.38;4.70;;;19.20;71.90;;;;;;4996972;28;20026;-65
2023/06/03 04:48:59;;;;;;;7.70;4.75;;;19.30;71.70;;;;;;4996908;28;20034;-64
2023/06/03 04:51:34;;;;;;;7.45;4.40;;;19.40;71.60;;;;;;4996856;28;20053;-64
2023/06/03 04:54:01;;;;;;;5.05;3.88;;;19.40;71.20;;;;;;4996828;28;20026;-64
2023/06/03 04:56:29;;;;;;;5.97;4.25;;;19.50;71.00;;;;;;4996708;28;20038;-64
2023/06/03 04:58:57;;;;;;;5.70;4.00;;;19.60;70.70;;;;;;4996691;28;20019;-65
2023/06/03 05:01:24;;;;;;;7.05;3.95;;;19.60;70.40;;;;;;4996676;28;20018;-65
2023/06/03 05:03:54;;;;;;;6.88;3.92;;;19.70;70.30;;;;;;4996088;28;20105;-64
2023/06/03 05:06:20;;;;;;;5.70;4.25;;;19.80;70.00;;;;;;4996585;28;20031;-64
2023/06/03 05:08:50;;;;;;;6.18;3.83;;;19.90;69.80;;;;;;4995663;28;20030;-65
2023/06/03 05:11:17;;;;;;;6.32;3.80;;;19.90;69.70;;;;;;4996741;28;20030;-64
2023/06/03 05:13:44;;;;;;;5.07;4.00;;;19.90;69.50;;;;;;4996414;28;20062;-64
2023/06/03 05:16:13;;;;;;;5.47;3.78;;;20.00;69.10;;;;;;4996351;28;20455;-64
2023/06/03 05:18:39;;;;;;;5.28;3.58;;;20.10;68.90;;;;;;4996124;28;20103;-64
2023/06/03 05:21:06;;;;;;;6.25;3.70;;;20.10;68.70;;;;;;4996240;28;20030;-64
2023/06/03 05:23:32;;;;;;;5.55;3.85;;;20.20;68.50;;;;;;4996173;28;20379;-64
2023/06/03 05:25:58;;;;;;;6.78;3.95;;;20.30;68.30;;;;;;4996236;28;20038;-64
2023/06/03 05:28:27;;;;;;;5.25;3.60;;;20.40;68.20;;;;;;4996111;28;20117;-65
2023/06/03 05:30:53;;;;;;;7.45;3.92;;;20.40;68.10;;;;;;4996135;28;20329;-64
2023/06/03 05:33:30;;;;;;;7.72;3.88;;;20.50;67.90;;;;;;4995774;28;20023;-64
2023/06/03 05:35:56;;;;;;;5.00;3.78;;;20.70;67.70;;;;;;4996299;28;20118;-65
2023/06/03 05:38:23;;;;;;;6.68;3.80;;;20.80;67.40;;;;;;4995999;28;20053;-64
2023/06/03 05:40:52;;;;;;;5.43;3.47;;;20.90;67.00;;;;;;4995930;28;20084;-64
2023/06/03 05:43:18;;;;;;;6.55;3.40;;;21.10;66.60;;;;;;4995806;28;20022;-64
2023/06/03 05:45:45;;;;;;;5.50;3.60;;;21.30;66.20;;;;;;4994964;28;20026;-64
2023/06/03 05:48:11;;;;;;;6.75;3.80;;;21.50;65.70;;;;;;4995642;28;20023;-64
2023/06/03 05:50:39;;;;;;;6.40;3.70;;;21.70;65.50;;;;;;4995770;28;20053;-64
2023/06/03 05:53:05;;;;;;;5.45;3.38;;;21.90;65.00;;;;;;4995736;28;20452;-64
2023/06/03 05:55:32;;;;;;;6.80;3.53;;;22.00;64.70;;;;;;4995772;28;20455;-65
2023/06/03 05:57:58;;;;;;;4.85;3.25;;;22.20;64.30;;;;;;4995693;28;20474;-64
2023/06/03 06:00:25;;;;;;;7.32;4.63;;;22.60;64.00;;;;;;4995612;28;20058;-64
2023/06/03 06:02:51;;;;;;;6.45;3.80;;;22.80;63.40;;;;;;4995111;28;20027;-64
2023/06/03 06:05:17;;;;;;;4.50;3.42;;;22.90;62.90;;;;;;4995718;28;20113;-64
2023/06/03 06:07:43;;;;;;;4.20;3.47;;;22.90;62.70;;;;;;4995516;28;20026;-64
2023/06/03 06:10:09;;;;;;;5.90;3.35;;;22.90;62.70;;;;;;4995596;28;20129;-65
2023/06/03 06:12:35;;;;;;;6.72;3.88;;;22.70;62.70;;;;;;4995474;28;20444;-64
2023/06/03 06:15:01;;;;;;;5.43;3.50;;;22.60;62.60;;;;;;4995519;28;20027;-64
2023/06/03 06:17:27;;;;;;;5.43;3.58;;;22.50;62.70;;;;;;4995144;28;20030;-64
2023/06/03 06:19:53;;;;;;;7.25;4.13;;;22.50;63.00;;;;;;4995595;28;20125;-65
2023/06/03 06:22:19;;;;;;;7.55;4.47;;;22.40;63.20;;;;;;4995247;28;20406;-64
2023/06/03 06:24:45;;;;;;;8.10;4.18;;;22.40;63.60;;;;;;4995492;28;20030;-64
2023/06/03 06:27:11;;;;;;;7.50;5.03;;;22.40;63.80;;;;;;4995307;28;20428;-64
2023/06/03 06:29:38;;;;;;;7.63;4.40;;;22.40;63.90;;;;;;4994676;28;20034;-64
2023/06/03 06:32:04;;;;;;;5.10;4.20;;;22.40;64.00;;;;;;4994134;28;20034;-64
2023/06/03 06:34:31;;;;;;;8.00;5.03;;;22.40;64.00;;;;;;4994113;28;20085;-64
2023/06/03 06:36:59;;;;;;;7.80;4.50;;;22.40;64.10;;;;;;4995315;28;20030;-64
2023/06/03 06:39:34;;;;;;;5.70;4.10;;;22.50;64.10;;;;;;4993762;28;20027;-64
2023/06/03 06:42:12;;;;;;;5.90;4.18;;;22.50;64.20;;;;;;4997300;28;20018;-64
2023/06/03 06:44:49;;;;;;;6.38;4.38;;;22.60;64.10;;;;;;5000020;28;20031;-64
2023/06/03 06:47:21;;;;;;;6.85;4.40;;;22.70;64.00;;;;;;4999280;28;20352;-64
2023/06/03 06:49:51;;;;;;;8.60;5.13;;;22.80;63.90;;;;;;4999285;28;20033;-65
2023/06/03 06:52:19;;;;;;;5.70;4.30;;;22.90;63.90;;;;;;4998214;28;20030;-64
2023/06/03 06:54:45;;;;;;;3.83;3.38;;;23.00;63.50;;;;;;4998945;28;20038;-64
2023/06/03 06:57:19;;;;;;;4.68;3.47;;;23.10;63.20;;;;;;4999139;28;20117;-64
2023/06/03 06:59:45;;;;;;;6.50;4.70;;;23.20;62.60;;;;;;4999045;28;20030;-64
2023/06/03 07:02:11;;;;;;;7.13;4.70;;;23.40;62.80;;;;;;4998766;28;20428;-64
2023/06/03 07:04:37;;;;;;;7.57;4.70;;;23.50;62.70;;;;;;4998619;28;20479;-64
2023/06/03 07:07:03;;;;;;;5.75;4.43;;;23.70;62.70;;;;;;4999005;28;20113;-65
2023/06/03 07:09:29;;;;;;;7.30;4.70;;;23.80;62.60;;;;;;4998739;28;20117;-65
2023/06/03 07:11:56;;;;;;;5.65;4.00;;;24.00;62.40;;;;;;4998660;28;20106;-64
2023/06/03 07:14:22;;;;;;;5.13;4.03;;;24.20;62.10;;;;;;4998393;28;20518;-65
2023/06/03 07:16:49;;;;;;;6.38;4.07;;;24.40;61.80;;;;;;4998693;28;20458;-64
2023/06/03 07:19:14;;;;;;;4.97;3.72;;;24.80;61.30;;;;;;4998555;28;20117;-64
2023/06/03 07:21:40;;;;;;;5.90;4.30;;;25.20;60.70;;;;;;4998573;28;20109;-64
2023/06/03 07:24:10;;;;;;;6.88;4.00;;;25.60;60.00;;;;;;4998648;28;20034;-64
2023/06/03 07:26:36;;;;;;;4.60;3.55;;;25.90;58.90;;;;;;4998855;28;20026;-64
2023/06/03 07:29:04;;;;;;;4.93;3.80;;;26.10;58.40;;;;;;4998144;28;20022;-64
2023/06/03 07:31:31;;;;;;;5.25;3.90;;;26.40;58.10;;;;;;4998338;28;20030;-64
2023/06/03 07:33:57;;;;;;;5.15;3.85;;;26.50;57.60;;;;;;4998256;28;20046;-64
2023/06/03 07:36:26;;;;;;;5.15;3.83;;;26.70;57.00;;;;;;4998584;28;20062;-64
2023/06/03 07:39:03;;;;;;;5.47;3.90;;;26.90;56.30;;;;;;4998125;28;20109;-64
2023/06/03 07:41:45;;;;;;;6.88;4.20;;;26.90;55.90;;;;;;4998374;28;20027;-64
2023/06/03 07:44:14;;;;;;;6.13;4.03;;;27.00;55.30;;;;;;4996987;28;20125;-68
2023/06/03 07:46:53;;;;;;;7.30;4.00;;;27.00;55.20;;;;;;4998089;28;20034;-68
2023/06/03 07:49:19;;;;;;;4.90;3.92;;;27.20;55.40;;;;;;4998195;28;20034;-68
2023/06/03 07:51:48;;;;;;;6.50;4.45;;;27.30;55.20;;;;;;4998272;28;20052;-68
2023/06/03 07:54:15;;;;;;;6.07;3.95;;;27.50;54.80;;;;;;4995697;28;20034;-68
2023/06/03 07:56:42;;;;;;;5.90;4.43;;;27.50;54.50;;;;;;4997938;28;20034;-68
2023/06/03 07:59:10;;;;;;;5.38;4.35;;;27.80;54.50;;;;;;4996885;28;20089;-68
2023/06/03 08:01:36;;;;;;;6.82;4.68;;;28.00;54.30;;;;;;4997903;28;20443;-68
2023/06/03 08:04:25;;;;;;;6.55;4.78;;;28.20;53.90;;;;;;4997554;28;20056;-69
2023/06/03 08:06:52;;;;;;;6.72;4.80;;;28.40;53.40;;;;;;4997976;28;20033;-68
2023/06/03 08:09:37;;;;;;;7.65;4.97;;;28.50;53.30;;;;;;4997653;28;20399;-68
2023/06/03 08:12:08;;;;;;;8.57;5.82;;;28.60;52.90;;;;;;4997461;28;20073;-68
2023/06/03 08:14:35;;;;;;;6.47;5.22;;;28.80;52.40;;;;;;4997658;28;20026;-68
2023/06/03 08:17:11;;;;;;;7.88;5.40;;;28.90;52.20;;;;;;4996668;28;20127;-68
2023/06/03 08:19:37;;;;;;;8.07;5.35;;;28.90;52.00;;;;;;4997530;28;20034;-68
2023/06/03 08:22:24;;;;;;;7.70;5.22;;;28.90;52.00;;;;;;4996544;28;20023;-68
2023/06/03 08:24:50;;;;;;;7.00;4.80;;;29.00;52.10;;;;;;4997635;28;20049;-68
2023/06/03 08:27:16;;;;;;;6.93;4.65;;;29.10;51.80;;;;;;4997146;28;20031;-68
2023/06/03 08:29:42;;;;;;;6.28;4.43;;;29.10;51.50;;;;;;4980222;28;20030;-68
2023/06/03 08:32:08;;;;;;;6.40;4.50;;;29.20;51.20;;;;;;4996260;28;20030;-68
2023/06/03 08:34:34;;;;;;;5.35;4.30;;;29.20;50.90;;;;;;4997259;28;20039;-68
2023/06/03 08:37:00;;;;;;;7.47;4.40;;;29.20;50.60;;;;;;4997356;28;20030;-68
2023/06/03 08:39:26;;;;;;;5.50;3.80;;;29.10;50.20;;;;;;4997121;28;20344;-69
2023/06/03 08:41:54;;;;;;;4.55;3.60;;;29.00;50.20;;;;;;4996928;28;20037;-68
2023/06/03 08:44:38;;;;;;;3.92;2.90;;;28.90;50.30;;;;;;4997043;28;20348;-68
2023/06/03 08:47:12;;;;;;;;;;;28.90;49.40;;;;;;4996505;28;20073;-69
2023/06/03 08:50:05;;;;;;;4.40;2.95;;;28.90;45.00;;;;;;4997316;28;19909;-68
2023/06/03 08:52:35;;;;;;;3.97;2.92;;;28.90;48.10;;;;;;4996861;28;20033;-68
2023/06/03 08:55:02;;;;;;;5.00;3.78;;;28.90;48.30;;;;;;4996943;28;20061;-68
2023/06/03 08:57:34;;;;;;;4.65;2.85;;;28.80;47.60;;;;;;4996843;28;20030;-68
2023/06/03 09:00:05;;;;;;;3.60;2.90;;;28.80;47.70;;;;;;4996711;28;20093;-68
2023/06/03 09:02:32;;;;;;;5.05;3.55;;;28.70;47.90;;;;;;4996596;28;20022;-68
2023/06/03 09:05:03;;;;;;;3.88;2.95;;;28.80;47.70;;;;;;4996417;28;20412;-69
2023/06/03 09:07:30;;;;;;;4.85;3.50;;;28.90;47.40;;;;;;4996521;28;20050;-68
2023/06/03 09:09:57;;;;;;;4.35;3.33;;;29.00;47.50;;;;;;4996641;28;20109;-68
2023/06/03 09:12:26;;;;;;;4.57;3.50;;;29.20;46.80;;;;;;4996587;28;20452;-68
2023/06/03 09:14:54;;;;;;;4.20;3.00;;;29.20;46.50;;;;;;4996494;28;20030;-68
2023/06/03 09:17:24;;;;;;;4.20;3.22;;;29.20;46.40;;;;;;4996650;28;20027;-68
2023/06/03 09:19:50;;;;;;;4.50;3.22;;;29.20;46.10;;;;;;4996570;28;20089;-68
2023/06/03 09:22:17;;;;;;;6.25;3.95;;;29.30;46.20;;;;;;4996318;28;20549;-68
2023/06/03 09:24:43;;;;;;;5.75;3.90;;;29.40;46.00;;;;;;4996318;28;20093;-68
2023/06/03 09:27:09;;;;;;;4.47;3.67;;;29.40;45.10;;;;;;4996224;28;20018;-68
2023/06/03 09:29:35;;;;;;;4.85;3.50;;;29.20;45.00;;;;;;4996192;28;20056;-68
2023/06/03 09:32:03;;;;;;;6.50;4.38;;;29.00;45.50;;;;;;4996164;28;20097;-68
2023/06/03 09:34:29;;;;;;;5.43;4.28;;;29.00;44.70;;;;;;4996062;28;20042;-68
2023/06/03 09:36:56;;;;;;;10.07;4.18;;;29.00;44.40;;;;;;4996173;28;20022;-68
2023/06/03 09:39:43;;;;;;;5.28;4.18;;;28.90;45.30;;;;;;4995673;28;20049;-68
2023/06/03 09:42:10;;;;;;;6.07;4.20;;;28.90;45.30;;;;;;4996245;28;20101;-64
2023/06/03 09:44:43;;;;;;;5.55;4.00;;;28.90;45.40;;;;;;4995189;28;20041;-64
2023/06/03 09:47:11;;;;;;;4.65;3.72;;;28.90;45.30;;;;;;4995904;28;20109;-69
2023/06/03 09:49:37;;;;;;;4.97;3.92;;;28.90;45.30;;;;;;4996193;28;20045;-68
2023/06/03 09:52:09;;;;;;;5.90;3.70;;;29.00;45.10;;;;;;4995862;28;20069;-68
2023/06/03 09:54:38;;;;;;;5.95;4.05;;;28.90;43.90;;;;;;4995533;28;20065;-68
2023/06/03 09:57:13;;;;;;;6.60;4.28;;;28.70;43.80;;;;;;4995825;28;20448;-68
2023/06/03 09:59:43;;;;;;;6.20;4.00;;;28.50;44.30;;;;;;4995949;28;20109;-64
2023/06/03 10:02:11;;;;;;;6.75;4.10;;;28.20;44.70;;;;;;4995545;28;20459;-68
2023/06/03 10:04:46;;;;;;;6.00;4.00;;;28.10;44.90;;;;;;4995465;28;20138;-68
2023/06/03 10:07:17;;;;;;;6.03;4.13;;;28.00;45.00;;;;;;4995414;28;20098;-68
2023/06/03 10:09:44;;;;;;;4.63;3.72;;;28.10;45.20;;;;;;4995797;28;20065;-68
2023/06/03 10:12:15;;;;;;;4.72;3.45;;;28.00;45.00;;;;;;4995496;28;20026;-68
2023/06/03 10:14:59;;;;;;;5.47;4.10;;;28.00;45.40;;;;;;4995566;28;20469;-68
2023/06/03 10:17:25;;;;;;;5.07;3.67;;;28.20;45.70;;;;;;4995185;28;20042;-68
2023/06/03 10:19:51;;;;;;;4.72;4.00;;;28.20;45.90;;;;;;4995475;28;20045;-68
2023/06/03 10:22:19;;;;;;;5.40;4.47;;;28.40;45.50;;;;;;4995106;28;20404;-68
2023/06/03 10:24:49;;;;;;;4.85;4.05;;;28.30;45.40;;;;;;4995437;28;20336;-68
2023/06/03 10:27:17;;;;;;;6.03;4.00;;;28.20;46.00;;;;;;4995724;28;20022;-68
2023/06/03 10:29:43;;;;;;;6.10;4.53;;;28.10;45.80;;;;;;4994430;28;20077;-68
2023/06/03 10:32:17;;;;;;;5.20;4.05;;;28.00;45.60;;;;;;4995266;28;20050;-68
2023/06/03 10:34:44;;;;;;;5.65;4.18;;;27.90;46.00;;;;;;4995334;28;20041;-69
2023/06/03 10:37:13;;;;;;;6.65;4.50;;;27.90;46.00;;;;;;4995279;28;20026;-68
2023/06/03 10:39:41;;;;;;;8.48;5.32;;;27.90;46.40;;;;;;4995221;28;20351;-68
2023/06/03 10:42:09;;;;;;;5.28;4.45;;;28.00;46.70;;;;;;4995185;28;20023;-69
2023/06/03 10:44:35;;;;;;;7.05;4.60;;;27.90;46.90;;;;;;4995413;28;20041;-68
2023/06/03 10:47:30;;;;;;;7.85;4.53;;;28.00;46.90;;;;;;4995139;28;20463;-68
2023/06/03 10:50:04;;;;;;;6.13;4.53;;;27.90;46.50;;;;;;4995437;28;20030;-68
2023/06/03 10:53:00;;;;;;;5.40;4.50;;;28.00;46.60;;;;;;4995098;28;20026;-69
2023/06/03 10:55:42;;;;;;;6.10;4.80;;;28.10;46.80;;;;;;4995005;28;20031;-69
2023/06/03 10:58:24;;;;;;;5.50;4.05;;;28.00;46.60;;;;;;4995042;28;20027;-68
2023/06/03 11:00:56;;;;;;;4.78;4.00;;;27.90;47.30;;;;;;4995017;28;20027;-69
2023/06/03 11:03:27;;;;;;;4.40;3.60;;;27.90;46.40;;;;;;4994493;28;20058;-68
2023/06/03 11:05:55;;;;;;;4.75;3.60;;;27.80;44.10;;;;;;4975816;28;20492;-68
2023/06/03 11:09:00;;;;;;;5.05;3.30;;;27.60;44.20;;;;;;4974029;28;20023;-68
2023/06/03 11:11:41;;;;;;;6.35;3.75;;;27.40;44.80;;;;;;4974522;28;20085;-64
2023/06/03 11:14:11;;;;;;;5.03;3.50;;;27.30;43.60;;;;;;4974171;28;20360;-67
2023/06/03 11:16:56;;;;;;;4.53;3.58;;;27.30;45.30;;;;;;4974420;28;20101;-64
2023/06/03 11:19:44;;;;;;;5.72;3.97;;;27.30;44.80;;;;;;4973507;28;20041;-65
2023/06/03 11:22:11;;;;;;;5.78;4.13;;;27.40;45.10;;;;;;4975441;28;20081;-67
2023/06/03 11:24:37;;;;;;;5.82;4.30;;;27.40;44.90;;;;;;4975481;28;20030;-64
2023/06/03 11:27:28;;;;;;;6.85;4.50;;;27.40;44.80;;;;;;4975449;28;20035;-64
2023/06/03 11:29:59;;;;;;;6.22;4.75;;;27.40;45.60;;;;;;4978080;28;20027;-68
2023/06/03 11:32:28;;;;;;;7.13;4.70;;;27.40;45.40;;;;;;4977821;28;20117;-64
2023/06/03 11:35:03;;;;;;;6.80;3.85;;;27.40;45.30;;;;;;4978632;28;20039;-64
2023/06/03 11:37:41;;;;;;;5.68;3.80;;;27.40;45.40;;;;;;4978780;28;20109;-68
2023/06/03 11:40:07;;;;;;;5.63;3.83;;;27.60;45.70;;;;;;4978925;28;20039;-64
2023/06/03 11:42:56;;;;;;;5.72;4.13;;;27.70;45.40;;;;;;4978810;28;20094;-64
2023/06/03 11:45:24;;;;;;;5.35;4.22;;;27.80;44.10;;;;;;4978598;28;20031;-64
2023/06/03 11:48:03;;;;;;;5.78;3.88;;;27.90;44.80;;;;;;4978550;28;20023;-64
2023/06/03 11:50:31;;;;;;;6.47;5.07;;;27.90;44.80;;;;;;4978475;28;20050;-64
2023/06/03 11:52:57;;;;;;;6.80;4.63;;;28.00;44.80;;;;;;4978438;28;20026;-64
2023/06/03 11:55:25;;;;;;;6.60;4.10;;;28.10;44.70;;;;;;4978561;28;20106;-64
2023/06/03 11:57:52;;;;;;;7.93;5.65;;;28.10;44.70;;;;;;4978462;28;20054;-64
2023/06/03 12:00:19;;;;;;;9.93;6.35;;;28.20;44.90;;;;;;4978227;28;20045;-64
2023/06/03 12:02:46;;;;;;;7.70;6.13;;;28.30;45.10;;;;;;4977441;28;20027;-64
2023/06/03 12:05:13;;;;;;;7.40;5.95;;;28.40;45.60;;;;;;4978060;28;20113;-64
2023/06/03 12:07:39;;;;;;;6.00;4.90;;;28.40;45.70;;;;;;4978255;28;20033;-64
2023/06/03 12:10:06;;;;;;;9.05;5.97;;;28.50;45.70;;;;;;4978575;28;20026;-64
2023/06/03 12:12:32;;;;;;;6.30;4.97;;;28.60;45.80;;;;;;4978087;28;20457;-64
2023/06/03 12:15:05;;;;;;;8.13;6.20;;;28.80;45.80;;;;;;4978141;28;20125;-64
2023/06/03 12:17:31;;;;;;;7.05;5.03;;;28.80;44.60;;;;;;4978430;28;20149;-64
2023/06/03 12:20:00;;;;;;;8.40;5.72;;;28.80;44.40;;;;;;4977801;28;20039;-64
2023/06/03 12:22:29;;;;;;;8.15;6.03;;;28.90;44.50;;;;;;4978236;28;20023;-64
2023/06/03 12:24:55;;;;;;;6.88;5.00;;;28.90;44.70;;;;;;4978060;28;20084;-64
2023/06/03 12:27:22;;;;;;;6.57;5.20;;;28.90;44.80;;;;;;4977951;28;20344;-64
2023/06/03 12:29:55;;;;;;;8.05;5.93;;;29.00;45.10;;;;;;4977801;28;20063;-64
2023/06/03 12:32:22;;;;;;;8.43;6.07;;;29.00;45.00;;;;;;4977526;28;20046;-64
2023/06/03 12:34:49;;;;;;;8.93;5.90;;;28.90;44.80;;;;;;4977801;28;20333;-64
2023/06/03 12:37:29;;;;;;;8.38;5.80;;;28.90;45.40;;;;;;4977702;28;20023;-64
2023/06/03 12:39:57;;;;;;;7.07;5.47;;;28.90;45.00;;;;;;4977216;28;20037;-68
2023/06/03 12:42:42;;;;;;;8.48;6.05;;;28.90;45.20;;;;;;4977424;28;20045;-68
2023/06/03 12:45:09;;;;;;;5.50;4.85;;;28.90;45.10;;;;;;4977783;28;20354;-68
2023/06/03 12:47:46;;;;;;;9.02;5.65;;;28.80;45.20;;;;;;4977478;28;20042;-69
2023/06/03 12:50:13;;;;;;;9.30;5.80;;;28.70;44.90;;;;;;4977593;28;20031;-68
2023/06/03 12:52:42;;;;;;;9.48;5.90;;;28.40;45.30;;;;;;4977547;28;20061;-69
2023/06/03 12:55:12;;;;;;;7.60;6.05;;;28.30;45.70;;;;;;4977502;28;20030;-68